Timblin, Pennsylvania
Current Conditions -  °F | °C
As of 8:53 PM on Saturday 22 Nov 2014 (Local Time) from KDUJ Reporting Station
Overcast Overcast  
Wind Chill: 37°   Ceiling: 5000
Heat Index: 43°   Visibility: 10mi
Dew Point: 32°   Wind: 12mph
Humidity: 65%   Direction: 220°SW
Pressure: 30.07"   Gusts: NA
Location:  40.97°N, 79.2°W
Report Text: KDUJ 230153Z AUTO 22010KT 10SM OVC050 06/00 A3007 RMK AO2 RAB09E19 SLP199 P0000 T00610000
Loading
Personal Weather Stations






























Interactive Weather Map New forecast layout! Learn more

10-Day Weather Forecast

Advertisements
Track Severe Weather on mobile